Time;durP1;ratioP1;P1;durP2;ratioP2;P2;SDS_P1;SDS_P2;PMS_P1;PMS_P2;Temp;Humidity;BMP_temperature;BMP_pressure;BME280_temperature;BME280_humidity;BME280_pressure;Samples;Min_cycle;Max_cycle;Signal;HPM_P1;HPM_P2
2023/06/09 00:00:17;;;;;;;191.52;69.88;;;;;;;20.77;49.83;101554.84;5002706;28;20034;-66
2023/06/09 00:02:44;;;;;;;194.18;70.68;;;;;;;20.75;50.14;101560.22;4990692;28;20029;-66
2023/06/09 00:05:11;;;;;;;189.77;69.07;;;;;;;20.75;50.04;101565.53;5001670;28;20165;-66
2023/06/09 00:07:36;;;;;;;192.20;69.25;;;;;;;20.75;50.16;101564.66;4974933;28;20037;-66
2023/06/09 00:10:03;;;;;;;188.45;69.50;;;;;;;20.75;50.00;101565.53;4997955;28;20022;-66
2023/06/09 00:12:28;;;;;;;190.07;68.97;;;;;;;20.74;50.12;101561.16;4992851;28;20068;-69
2023/06/09 00:14:58;;;;;;;192.50;69.60;;;;;;;20.74;50.01;101561.16;5010500;28;20120;-66
2023/06/09 00:17:24;;;;;;;189.30;69.55;;;;;;;20.73;50.09;101562.06;5011758;28;20487;-65
2023/06/09 00:19:52;;;;;;;192.65;70.22;;;;;;;20.73;50.28;101556.75;5004864;28;20045;-66
2023/06/09 00:22:19;;;;;;;192.82;70.78;;;;;;;20.74;50.10;101561.16;4984280;28;20030;-66
2023/06/09 00:24:45;;;;;;;190.23;71.03;;;;;;;20.73;50.27;101556.75;5009415;28;20033;-66
2023/06/09 00:27:10;;;;;;;190.82;71.40;;;;;;;20.73;49.98;101564.72;4995821;28;20030;-66
2023/06/09 00:29:36;;;;;;;191.82;70.72;;;;;;;20.72;50.23;101552.41;4998896;28;20029;-66
2023/06/09 00:32:02;;;;;;;189.60;68.47;;;;;;;20.70;49.87;101550.75;5014239;28;20030;-66
2023/06/09 00:34:27;;;;;;;183.63;68.28;;;;;;;20.70;49.95;101554.25;5013235;28;20036;-66
2023/06/09 00:36:52;;;;;;;190.18;68.75;;;;;;;20.70;49.87;101551.59;4994605;28;20549;-66
2023/06/09 00:39:18;;;;;;;190.02;68.85;;;;;;;20.71;50.30;101550.69;4995740;28;20101;-65
2023/06/09 00:41:43;;;;;;;204.10;72.07;;;;;;;20.69;49.93;101549.88;4996301;28;20502;-65
2023/06/09 00:44:09;;;;;;;201.63;70.82;;;;;;;20.68;50.18;101553.47;5014722;28;20017;-65
2023/06/09 00:46:34;;;;;;;188.77;68.80;;;;;;;20.68;50.03;101553.47;5013273;28;20025;-66
2023/06/09 00:49:00;;;;;;;189.05;68.97;;;;;;;20.68;50.00;101558.78;5015196;28;20044;-66
2023/06/09 00:51:25;;;;;;;190.98;69.30;;;;;;;20.69;49.98;101555.19;4993233;28;20052;-66
2023/06/09 00:53:51;;;;;;;193.52;69.05;;;;;;;20.68;50.10;101558.78;5012102;28;20133;-65
2023/06/09 00:56:18;;;;;;;190.00;68.75;;;;;;;20.68;50.02;101557.88;5013891;28;20034;-66
2023/06/09 00:58:43;;;;;;;188.93;68.90;;;;;;;20.68;50.18;101545.53;4995037;28;20455;-66
2023/06/09 01:01:09;;;;;;;189.98;68.63;;;;;;;20.68;50.42;101548.16;4995182;28;20030;-66
2023/06/09 01:03:34;;;;;;;188.30;69.30;;;;;;;20.68;49.96;101547.25;5009165;28;20056;-66
2023/06/09 01:06:26;;;;;;;187.05;68.80;;;;;;;20.67;49.83;101550.84;5013615;28;20081;-67
2023/06/09 01:09:02;;;;;;;188.13;69.03;;;;;;;20.65;50.19;101558.88;5013446;28;20080;-67
2023/06/09 01:11:46;;;;;;;187.13;67.78;;;;;;;20.65;50.14;101565.97;5013580;28;20475;-67
2023/06/09 01:14:17;;;;;;;208.07;72.70;;;;;;;20.64;49.94;101573.06;4994910;28;20069;-67
2023/06/09 01:17:00;;;;;;;188.52;69.70;;;;;;;20.62;49.93;101574.09;5011763;28;20040;-67
2023/06/09 01:19:25;;;;;;;187.13;68.05;;;;;;;20.60;50.30;101576.78;5007550;28;20054;-67
2023/06/09 01:21:53;;;;;;;188.35;68.75;;;;;;;20.62;50.41;101571.44;5012163;28;20586;-67
2023/06/09 01:24:52;;;;;;;202.32;69.63;;;;;;;20.60;50.16;101564.41;5014113;28;20034;-67
2023/06/09 01:27:18;;;;;;;185.35;66.32;;;;;;;20.60;50.18;101563.50;4993651;28;20484;-67
2023/06/09 01:29:44;;;;;;;187.77;67.65;;;;;;;20.61;49.96;101562.59;4999137;28;20026;-67
2023/06/09 01:32:10;;;;;;;186.63;68.70;;;;;;;20.60;49.93;101563.50;5012542;28;20021;-67
2023/06/09 01:34:35;;;;;;;190.98;68.53;;;;;;;20.58;49.98;101565.41;5011671;28;20084;-67
2023/06/09 01:37:01;;;;;;;184.40;67.28;;;;;;;20.57;50.04;101569.84;5013142;28;20030;-67
2023/06/09 01:39:27;;;;;;;186.68;67.57;;;;;;;20.57;50.35;101567.19;5011834;28;20457;-67
2023/06/09 01:41:52;;;;;;;187.45;68.20;;;;;;;20.54;49.99;101566.47;5012499;28;20475;-67
2023/06/09 01:44:17;;;;;;;203.52;70.78;;;;;;;20.56;50.36;101553.97;5013799;28;20101;-67
2023/06/09 01:46:43;;;;;;;187.10;68.28;;;;;;;20.55;50.09;101558.44;5013448;28;20446;-67
2023/06/09 01:49:17;;;;;;;193.98;70.63;;;;;;;20.55;49.98;101547.81;5012894;28;20029;-67
2023/06/09 01:52:15;;;;;;;192.02;68.43;;;;;;;20.54;50.16;101548.72;5009331;28;20021;-67
2023/06/09 01:54:45;;;;;;;194.25;69.43;;;;;;;20.53;49.97;101555.00;4993239;28;20041;-67
2023/06/09 01:58:06;;;;;;;187.90;68.45;;;;;;;20.54;50.30;101554.03;5012720;28;20022;-67
2023/06/09 02:00:31;;;;;;;180.10;66.70;;;;;;;20.53;50.01;101554.13;4951674;29;20038;-67
2023/06/09 02:02:59;;;;;;;183.85;68.18;;;;;;;20.50;50.22;101549.81;5006501;28;20038;-67
2023/06/09 02:05:24;;;;;;;188.48;69.75;;;;;;;20.50;50.47;101548.94;5011588;28;20037;-67
2023/06/09 02:07:53;;;;;;;186.70;67.93;;;;;;;20.48;50.70;101546.38;5012624;28;20022;-67
2023/06/09 02:10:20;;;;;;;185.07;67.22;;;;;;;20.49;50.18;101547.22;4992312;28;20030;-68
2023/06/09 02:12:46;;;;;;;186.40;67.07;;;;;;;20.47;50.51;101538.47;5012259;28;20037;-67
2023/06/09 02:15:11;;;;;;;186.40;67.28;;;;;;;20.47;50.36;101544.63;5012378;28;20026;-67
2023/06/09 02:17:36;;;;;;;190.30;70.15;;;;;;;20.48;50.38;101545.50;5013421;28;20025;-67
2023/06/09 02:20:03;;;;;;;186.32;67.78;;;;;;;20.43;50.23;101538.59;5007479;28;20034;-67
2023/06/09 02:22:29;;;;;;;189.35;68.88;;;;;;;20.43;50.88;101541.25;5012120;28;20048;-68
2023/06/09 02:24:55;;;;;;;190.77;67.47;;;;;;;20.42;50.36;101538.66;5011977;28;20049;-67
2023/06/09 02:27:21;;;;;;;186.82;67.28;;;;;;;20.42;50.38;101539.53;5012980;28;20391;-67
2023/06/09 02:29:46;;;;;;;191.65;69.05;;;;;;;20.42;50.23;101541.31;5007760;28;20030;-67
2023/06/09 02:32:11;;;;;;;185.27;66.13;;;;;;;20.42;50.66;101531.59;5013074;28;20021;-67
2023/06/09 02:34:37;;;;;;;188.75;68.30;;;;;;;20.41;50.41;101535.16;5012663;28;20064;-67
2023/06/09 02:37:07;;;;;;;187.00;67.13;;;;;;;20.40;50.70;101533.44;5012474;28;20057;-67
2023/06/09 02:39:32;;;;;;;199.82;70.65;;;;;;;20.40;50.56;101544.03;5011916;28;20097;-67
2023/06/09 02:41:58;;;;;;;192.60;68.25;;;;;;;20.38;50.68;101551.22;5011531;28;20113;-66
2023/06/09 02:44:24;;;;;;;195.23;71.57;;;;;;;20.39;50.13;101546.78;4995053;28;20449;-67
2023/06/09 02:46:49;;;;;;;181.52;66.90;;;;;;;20.39;50.72;101552.06;5012347;28;20112;-67
2023/06/09 02:49:16;;;;;;;184.98;66.45;;;;;;;20.38;50.81;101550.34;5012916;28;20026;-67
2023/06/09 02:51:42;;;;;;;188.77;68.22;;;;;;;20.36;50.41;101545.09;5011211;28;20487;-67
2023/06/09 02:54:07;;;;;;;197.10;70.68;;;;;;;20.36;50.74;101542.47;4991734;28;20026;-67
2023/06/09 02:56:33;;;;;;;188.02;68.13;;;;;;;20.36;50.71;101547.75;4986860;28;20026;-67
2023/06/09 02:58:58;;;;;;;182.23;67.57;;;;;;;20.36;50.66;101553.06;5008366;28;20636;-67
2023/06/09 03:01:26;;;;;;;186.70;68.22;;;;;;;20.35;50.66;101548.69;5008541;28;20443;-67
2023/06/09 03:03:51;;;;;;;187.25;67.40;;;;;;;20.34;50.53;101549.63;4995124;28;20112;-67
2023/06/09 03:06:17;;;;;;;186.98;68.22;;;;;;;20.33;50.51;101550.56;5011677;28;20021;-67
2023/06/09 03:08:43;;;;;;;188.23;69.10;;;;;;;20.33;50.65;101552.34;5011526;28;20498;-67
2023/06/09 03:11:08;;;;;;;180.35;65.50;;;;;;;20.32;50.68;101546.19;5002534;28;20394;-67
2023/06/09 03:13:34;;;;;;;188.38;69.30;;;;;;;20.32;50.51;101551.47;5011160;28;20499;-67
2023/06/09 03:15:59;;;;;;;186.70;66.82;;;;;;;20.33;50.74;101558.53;5011462;28;20034;-67
2023/06/09 03:18:26;;;;;;;185.82;68.13;;;;;;;20.34;50.74;101560.25;5012339;28;20049;-67
2023/06/09 03:20:51;;;;;;;188.30;67.32;;;;;;;20.33;50.50;101560.28;5003552;28;20033;-67
2023/06/09 03:23:21;;;;;;;187.60;68.45;;;;;;;20.33;50.68;101562.94;5011044;28;20053;-67
2023/06/09 03:25:49;;;;;;;185.60;68.22;;;;;;;20.33;50.44;101571.78;5010343;28;20391;-67
2023/06/09 03:28:15;;;;;;;184.00;67.40;;;;;;;20.33;50.63;101562.94;5011007;28;20060;-67
2023/06/09 03:30:40;;;;;;;189.07;68.57;;;;;;;20.33;50.77;101561.16;5004003;28;20109;-67
2023/06/09 03:33:06;;;;;;;187.10;67.05;;;;;;;20.32;50.69;101561.25;5010702;28;20401;-68
2023/06/09 03:35:31;;;;;;;186.50;67.05;;;;;;;20.33;50.19;101565.59;5011064;28;20104;-67
2023/06/09 03:37:56;;;;;;;188.25;68.75;;;;;;;20.33;50.65;101555.88;5012118;28;20458;-67
2023/06/09 03:40:22;;;;;;;186.25;67.22;;;;;;;20.32;50.62;101554.13;5006367;28;20118;-67
2023/06/09 03:42:47;;;;;;;184.73;67.05;;;;;;;20.32;50.54;101556.78;5009385;28;20025;-67
2023/06/09 03:45:12;;;;;;;187.00;66.78;;;;;;;20.34;50.57;101560.25;5011109;28;20036;-67
2023/06/09 03:47:38;;;;;;;184.00;65.85;;;;;;;20.33;50.60;101561.16;5011677;28;20026;-67
2023/06/09 03:50:03;;;;;;;189.73;68.10;;;;;;;20.34;50.53;101560.25;5008487;28;20021;-67
2023/06/09 03:52:30;;;;;;;191.05;68.80;;;;;;;20.34;50.28;101559.38;5004669;28;20026;-67
2023/06/09 03:54:55;;;;;;;191.98;67.68;;;;;;;20.34;50.29;101560.25;5010705;28;20023;-67
2023/06/09 03:57:20;;;;;;;186.48;66.40;;;;;;;20.35;50.37;101556.66;5010232;28;20030;-67
2023/06/09 03:59:46;;;;;;;194.15;68.28;;;;;;;20.35;50.23;101559.28;5010737;28;20163;-67
2023/06/09 04:02:11;;;;;;;188.75;69.80;;;;;;;20.36;50.34;101552.22;5001789;28;20025;-67
2023/06/09 04:04:36;;;;;;;189.00;68.70;;;;;;;20.36;50.37;101550.41;5010267;28;20037;-67
2023/06/09 04:07:02;;;;;;;187.55;67.93;;;;;;;20.36;50.17;101547.75;5007344;28;20034;-67
2023/06/09 04:09:27;;;;;;;186.38;68.53;;;;;;;20.38;50.36;101555.66;4992505;28;20026;-67
2023/06/09 04:11:53;;;;;;;189.40;68.47;;;;;;;20.37;50.19;101554.81;5004306;28;20533;-67
2023/06/09 04:14:18;;;;;;;198.05;67.55;;;;;;;20.38;50.04;101553.88;5010315;28;20032;-67
2023/06/09 04:16:45;;;;;;;184.93;66.95;;;;;;;20.39;50.27;101558.22;4987113;28;20033;-67
2023/06/09 04:19:10;;;;;;;185.50;67.88;;;;;;;20.38;50.45;101553.88;5010503;28;20360;-67
2023/06/09 04:21:37;;;;;;;188.38;67.90;;;;;;;20.39;49.92;101568.84;5009765;28;20033;-67
2023/06/09 04:24:02;;;;;;;189.65;67.38;;;;;;;20.40;49.87;101564.41;5006136;28;20033;-67
2023/06/09 04:26:29;;;;;;;189.63;69.72;;;;;;;20.40;50.16;101569.72;5010669;28;20372;-66
2023/06/09 04:28:55;;;;;;;184.63;67.63;;;;;;;20.39;49.94;101568.84;4990991;28;20026;-67
2023/06/09 04:31:23;;;;;;;190.55;69.63;;;;;;;20.41;49.40;101564.34;4990750;28;20018;-67
2023/06/09 04:33:51;;;;;;;187.98;68.72;;;;;;;20.42;50.21;101563.44;4993781;28;20022;-67
2023/06/09 04:36:17;;;;;;;181.00;65.82;;;;;;;20.43;50.09;101564.28;5005739;28;20459;-68
2023/06/09 04:38:42;;;;;;;191.20;68.75;;;;;;;20.43;49.98;101570.44;5007729;28;20495;-67
2023/06/09 04:41:08;;;;;;;182.52;67.53;;;;;;;20.45;50.22;101573.06;5011550;28;20318;-67
2023/06/09 04:43:34;;;;;;;198.18;69.68;;;;;;;20.45;50.03;101565.09;5008002;28;20026;-67
2023/06/09 04:45:59;;;;;;;196.30;69.20;;;;;;;20.46;49.88;101579.22;4993170;28;20033;-67
2023/06/09 04:48:29;;;;;;;187.48;68.07;;;;;;;20.46;49.93;101581.84;4995670;28;20081;-67
2023/06/09 04:50:54;;;;;;;185.65;67.80;;;;;;;20.46;50.08;101579.22;4990535;28;20109;-67
2023/06/09 04:53:20;;;;;;;185.45;66.25;;;;;;;20.47;50.56;101575.63;5006286;28;20567;-67
2023/06/09 04:55:46;;;;;;;180.32;66.82;;;;;;;20.47;49.98;101576.47;5008200;28;20026;-67
2023/06/09 04:58:11;;;;;;;180.75;66.72;;;;;;;20.48;49.90;101582.63;4997508;28;20035;-68
2023/06/09 05:00:37;;;;;;;185.00;66.22;;;;;;;20.49;49.67;101576.41;4991592;28;20043;-67
2023/06/09 05:03:05;;;;;;;184.00;65.90;;;;;;;20.50;50.07;101581.66;5003163;28;20033;-67
2023/06/09 05:05:30;;;;;;;187.63;65.95;;;;;;;20.51;49.81;101569.25;5009086;28;20113;-67
2023/06/09 05:07:56;;;;;;;184.85;66.97;;;;;;;20.51;49.86;101582.53;5000212;28;20055;-67
2023/06/09 05:10:21;;;;;;;186.73;68.72;;;;;;;20.52;49.83;101574.50;4995189;28;20054;-67
2023/06/09 05:12:47;;;;;;;187.43;67.57;;;;;;;20.52;49.76;101578.91;5004823;28;20026;-67
2023/06/09 05:15:12;;;;;;;187.20;68.10;;;;;;;20.53;49.47;101581.53;5012820;28;20030;-67
2023/06/09 05:17:37;;;;;;;183.85;67.97;;;;;;;20.53;49.86;101585.97;5004580;28;20537;-67
2023/06/09 05:20:06;;;;;;;176.73;64.88;;;;;;;20.54;49.75;101585.03;4994873;28;20340;-68
2023/06/09 05:22:32;;;;;;;191.70;68.93;;;;;;;20.55;49.82;101584.13;5002443;28;20524;-67
2023/06/09 05:24:57;;;;;;;193.65;68.85;;;;;;;20.56;49.57;101585.81;5002774;28;20141;-67
2023/06/09 05:27:23;;;;;;;189.18;68.50;;;;;;;20.57;49.76;101584.91;5008651;28;20563;-68
2023/06/09 05:29:48;;;;;;;185.27;65.88;;;;;;;20.59;49.52;101583.03;4993668;28;20411;-67
2023/06/09 05:32:13;;;;;;;188.02;68.18;;;;;;;20.60;49.13;101576.78;5008101;28;20367;-67
2023/06/09 05:34:39;;;;;;;186.00;68.18;;;;;;;20.61;49.42;101586.47;5011973;28;20026;-67
2023/06/09 05:37:04;;;;;;;185.40;66.03;;;;;;;20.62;49.48;101577.59;5014287;28;20071;-67
2023/06/09 05:39:30;;;;;;;185.68;66.47;;;;;;;20.62;49.66;101585.56;5006657;28;20080;-68
2023/06/09 05:41:56;;;;;;;188.43;68.25;;;;;;;20.64;49.34;101585.50;5005272;28;20220;-67
2023/06/09 05:44:21;;;;;;;202.07;69.85;;;;;;;20.65;49.52;101584.56;5007529;28;20018;-67
2023/06/09 05:46:46;;;;;;;188.18;66.85;;;;;;;20.67;49.55;101588.00;4994451;28;20026;-67
2023/06/09 05:49:12;;;;;;;186.13;66.65;;;;;;;20.68;49.19;101592.38;4997517;28;20148;-67
2023/06/09 05:51:37;;;;;;;186.75;66.20;;;;;;;20.67;49.29;101591.53;5012347;28;20014;-66
2023/06/09 05:54:03;;;;;;;194.30;67.13;;;;;;;20.69;49.30;101591.50;5010359;28;20084;-66
2023/06/09 05:56:29;;;;;;;185.20;66.93;;;;;;;20.71;49.30;101595.81;4976695;28;20026;-67
2023/06/09 05:59:03;;;;;;;188.75;67.88;;;;;;;20.73;49.12;101585.97;4995644;28;20054;-67
2023/06/09 06:01:30;;;;;;;185.50;67.47;;;;;;;20.75;48.99;101596.50;5009699;28;20034;-67
2023/06/09 06:03:56;;;;;;;192.25;68.72;;;;;;;20.75;48.91;101592.09;5011693;28;20109;-68
2023/06/09 06:06:21;;;;;;;182.68;65.85;;;;;;;20.79;48.76;101591.94;5013513;28;20104;-68
2023/06/09 06:08:46;;;;;;;192.13;69.00;;;;;;;20.80;48.53;101599.81;5013108;28;20442;-67
2023/06/09 06:11:12;;;;;;;185.40;67.15;;;;;;;20.82;48.52;101597.09;5004031;28;20020;-67
2023/06/09 06:13:37;;;;;;;184.10;67.88;;;;;;;20.85;48.67;101594.31;5013448;28;20172;-67
2023/06/09 06:16:03;;;;;;;188.32;69.20;;;;;;;20.88;48.43;101594.19;5013354;23;20117;-69
2023/06/09 06:18:28;;;;;;;191.57;70.47;;;;;;;20.93;48.65;101589.53;4992806;28;20034;-69
2023/06/09 06:20:54;;;;;;;186.02;67.13;;;;;;;21.04;47.88;101594.34;4992227;28;20065;-69
2023/06/09 06:23:20;;;;;;;188.18;68.85;;;;;;;21.17;47.67;101594.63;4991948;28;20101;-68
2023/06/09 06:25:45;;;;;;;180.98;67.20;;;;;;;21.25;47.46;101600.44;4993521;28;20049;-69
2023/06/09 06:28:10;;;;;;;188.70;69.85;;;;;;;21.32;47.88;101596.56;4991897;28;20109;-69
2023/06/09 06:30:37;;;;;;;181.68;68.53;;;;;;;21.41;47.25;101596.13;4991265;28;20027;-69
2023/06/09 06:33:04;;;;;;;201.38;72.10;;;;;;;21.50;47.62;101596.63;4991109;28;20026;-69
2023/06/09 06:35:30;;;;;;;189.35;70.57;;;;;;;21.58;47.62;101591.81;4991560;28;20026;-69
2023/06/09 06:37:56;;;;;;;181.77;69.30;;;;;;;21.68;47.24;101598.44;4992852;28;20188;-69
2023/06/09 06:40:22;;;;;;;180.23;68.82;;;;;;;21.85;46.66;101602.06;4971039;28;20499;-69
2023/06/09 06:42:47;;;;;;;178.93;67.47;;;;;;;21.98;46.19;101600.53;4992301;28;20034;-69
2023/06/09 06:45:13;;;;;;;190.20;68.70;;;;;;;22.16;46.43;101600.53;4972731;28;20023;-70
2023/06/09 06:47:40;;;;;;;196.13;68.32;;;;;;;22.34;45.26;101602.25;4985806;28;20034;-69
2023/06/09 06:50:06;;;;;;;189.02;69.15;;;;;;;22.55;45.27;101604.75;4991621;28;20345;-69
2023/06/09 06:52:33;;;;;;;187.75;67.22;;;;;;;22.77;44.38;101610.69;4971882;28;20027;-69
2023/06/09 06:54:58;;;;;;;190.35;67.40;;;;;;;23.04;43.87;101617.25;4973228;28;20516;-70
2023/06/09 06:57:24;;;;;;;189.88;68.00;;;;;;;23.35;43.88;101615.59;4989458;28;20117;-69
2023/06/09 06:59:49;;;;;;;196.57;70.72;;;;;;;23.71;42.57;101615.34;4991258;28;20026;-69
2023/06/09 07:02:14;;;;;;;191.02;68.80;;;;;;;24.18;41.79;101610.03;4992553;28;20030;-69
2023/06/09 07:04:39;;;;;;;189.10;69.70;;;;;;;24.60;40.53;101611.91;4974909;28;20030;-69
2023/06/09 07:07:05;;;;;;;205.80;71.85;;;;;;;25.12;39.15;101613.16;4990860;28;20038;-70
2023/06/09 07:09:30;;;;;;;194.25;70.32;;;;;;;25.62;38.44;101610.06;4990753;28;20030;-69
2023/06/09 07:11:55;;;;;;;193.15;70.43;;;;;;;26.04;37.45;101610.88;4992420;28;20086;-69
2023/06/09 07:14:21;;;;;;;188.18;67.75;;;;;;;26.46;36.84;101608.91;4992292;28;20054;-70
2023/06/09 07:16:46;;;;;;;194.65;71.00;;;;;;;26.50;36.76;101612.19;4990502;28;20516;-70
2023/06/09 07:19:11;;;;;;;190.50;70.20;;;;;;;26.79;35.92;101612.00;4991890;28;20422;-69
2023/06/09 07:21:37;;;;;;;191.25;72.03;;;;;;;26.96;35.64;101618.88;4974348;28;20491;-69
2023/06/09 07:24:05;;;;;;;189.43;72.30;;;;;;;27.04;35.44;101605.78;4990555;28;20041;-69
2023/06/09 07:26:32;;;;;;;188.50;72.25;;;;;;;27.24;34.85;101606.16;4990872;28;20026;-69
2023/06/09 07:28:57;;;;;;;190.73;72.22;;;;;;;27.44;35.12;101610.94;4990155;28;20361;-70
2023/06/09 07:31:23;;;;;;;191.20;73.82;;;;;;;27.49;34.60;101608.78;4990063;28;20022;-69
2023/06/09 07:33:48;;;;;;;192.38;72.20;;;;;;;27.70;34.02;101618.88;4991709;28;20022;-69
2023/06/09 07:36:14;;;;;;;183.90;72.38;;;;;;;27.88;33.65;101615.81;4990709;28;20089;-70
2023/06/09 07:38:42;;;;;;;197.35;73.15;;;;;;;27.82;33.49;101612.59;4990983;28;20448;-69
2023/06/09 07:41:08;;;;;;;194.85;73.35;;;;;;;27.83;33.87;101608.09;4973119;28;20026;-70
2023/06/09 07:43:33;;;;;;;194.57;73.45;;;;;;;28.17;32.95;101619.84;4992111;28;20030;-70
2023/06/09 07:45:58;;;;;;;189.82;72.13;;;;;;;28.19;33.13;101619.72;4991726;28;20112;-71
2023/06/09 07:48:25;;;;;;;193.77;72.93;;;;;;;28.23;33.38;101621.19;4990210;28;20022;-71
2023/06/09 07:50:51;;;;;;;189.73;69.65;;;;;;;28.17;33.34;101609.09;4992246;28;20106;-70
2023/06/09 07:53:17;;;;;;;193.75;72.28;;;;;;;28.21;33.11;101616.91;4992511;28;20114;-70
2023/06/09 07:55:43;;;;;;;191.65;70.90;;;;;;;28.04;33.28;101616.38;4990410;28;20466;-71
2023/06/09 07:58:08;;;;;;;189.30;69.90;;;;;;;28.04;33.56;101620.91;4991109;28;20026;-71
2023/06/09 08:00:33;;;;;;;191.68;70.32;;;;;;;27.54;34.63;101618.31;4990425;28;20027;-70
2023/06/09 08:03:02;;;;;;;189.73;72.68;;;;;;;27.10;35.22;101624.09;4974519;28;20018;-70
2023/06/09 08:05:29;;;;;;;191.65;72.93;;;;;;;26.64;36.45;101619.28;4990265;28;20353;-71
2023/06/09 08:07:55;;;;;;;190.40;71.82;;;;;;;26.14;37.49;101622.66;4956812;28;20491;-71
2023/06/09 08:10:20;;;;;;;191.40;71.70;;;;;;;25.78;37.85;101626.81;4987455;28;20038;-70
2023/06/09 08:12:45;;;;;;;186.48;72.55;;;;;;;25.53;38.84;101624.03;4989320;28;20041;-70
2023/06/09 08:15:11;;;;;;;192.38;73.28;;;;;;;25.14;39.25;101621.97;4991889;28;20030;-71
2023/06/09 08:17:36;;;;;;;205.63;75.15;;;;;;;24.97;39.93;101624.84;4992018;28;20036;-71
2023/06/09 08:20:03;;;;;;;197.93;73.15;;;;;;;24.84;40.18;101621.22;4991320;28;20058;-71
2023/06/09 08:22:29;;;;;;;188.90;70.95;;;;;;;24.56;40.83;101630.91;4990300;28;20029;-71
2023/06/09 08:24:56;;;;;;;191.93;71.35;;;;;;;24.30;41.02;101622.63;4991170;28;20022;-70
2023/06/09 08:27:21;;;;;;;192.52;72.57;;;;;;;24.11;42.31;101623.72;4990606;28;20057;-71
2023/06/09 08:29:48;;;;;;;190.85;72.18;;;;;;;23.91;42.59;101624.88;4990773;28;20033;-70
2023/06/09 08:32:14;;;;;;;195.45;73.78;;;;;;;23.77;42.65;101622.13;4988729;28;20034;-70
2023/06/09 08:34:39;;;;;;;192.93;72.43;;;;;;;23.58;43.55;101616.97;4989834;28;20034;-71
2023/06/09 08:37:04;;;;;;;195.35;72.63;;;;;;;23.39;44.18;101618.00;4991285;28;20030;-70
2023/06/09 08:39:30;;;;;;;190.95;71.97;;;;;;;23.27;44.21;101627.56;4991655;28;20034;-70
2023/06/09 08:42:01;;;;;;;185.85;70.82;;;;;;;23.19;44.69;101616.47;4989776;28;20030;-71
2023/06/09 08:44:28;;;;;;;194.60;73.07;;;;;;;23.13;43.99;101622.13;4993839;28;20252;-70
2023/06/09 08:46:57;;;;;;;190.52;71.18;;;;;;;23.02;44.73;101614.69;4993563;28;20034;-71
2023/06/09 08:49:22;;;;;;;190.30;70.07;;;;;;;22.95;44.84;101615.97;4993677;28;20384;-70
2023/06/09 08:51:48;;;;;;;189.30;70.75;;;;;;;22.86;44.89;101614.63;4978343;28;20045;-70
2023/06/09 08:54:15;;;;;;;208.18;73.10;;;;;;;22.85;44.93;101617.38;4994889;28;20018;-70
2023/06/09 08:56:41;;;;;;;188.65;71.50;;;;;;;22.79;45.38;101607.94;4996569;28;20581;-70
2023/06/09 08:59:06;;;;;;;191.27;71.40;;;;;;;22.79;45.87;101608.78;4994292;28;20142;-70
2023/06/09 09:01:33;;;;;;;182.93;69.68;;;;;;;22.73;45.77;101609.13;4993060;28;20399;-71
2023/06/09 09:03:58;;;;;;;191.48;72.05;;;;;;;22.69;46.02;101610.22;4994859;28;20054;-71
2023/06/09 09:06:24;;;;;;;189.20;71.75;;;;;;;22.65;45.26;101611.31;4994615;28;20048;-70
2023/06/09 09:08:49;;;;;;;188.73;69.45;;;;;;;22.65;45.41;101616.66;4991558;28;20037;-70
2023/06/09 09:11:14;;;;;;;187.43;70.00;;;;;;;22.63;46.08;101613.19;4994647;28;20425;-71
2023/06/09 09:13:40;;;;;;;186.50;70.82;;;;;;;22.59;46.02;101614.28;4994660;28;20018;-70
2023/06/09 09:16:07;;;;;;;194.95;71.28;;;;;;;22.59;45.80;101603.66;4993170;28;20057;-70
2023/06/09 09:18:34;;;;;;;190.88;70.25;;;;;;;22.56;46.06;101606.47;4992310;28;20061;-70
2023/06/09 09:21:00;;;;;;;188.20;69.85;;;;;;;22.53;46.09;101612.81;4993191;28;20030;-70
2023/06/09 09:23:32;;;;;;;192.75;71.60;;;;;;;22.53;46.01;101606.66;4993003;28;20030;-70
2023/06/09 09:25:59;;;;;;;182.77;70.13;;;;;;;22.50;46.03;101602.34;4992584;28;20062;-70
2023/06/09 09:28:25;;;;;;;191.80;71.30;;;;;;;22.49;45.99;101610.41;4993663;28;20032;-70
2023/06/09 09:30:57;;;;;;;181.18;68.82;;;;;;;22.49;46.60;101605.09;4992805;28;20022;-71
2023/06/09 09:33:29;;;;;;;179.05;67.05;;;;;;;22.44;46.53;101606.19;4977597;28;20612;-70
2023/06/09 09:35:57;;;;;;;187.40;69.78;;;;;;;22.45;46.37;101613.25;4992989;28;20113;-70
2023/06/09 09:38:25;;;;;;;187.10;68.05;;;;;;;22.42;46.60;101612.53;4992623;28;20034;-71
2023/06/09 09:40:52;;;;;;;189.27;70.00;;;;;;;22.42;45.90;101615.19;4992904;28;20030;-71
2023/06/09 09:43:18;;;;;;;182.23;69.13;;;;;;;22.41;46.49;101611.66;4993411;28;20026;-70
2023/06/09 09:45:48;;;;;;;188.40;68.78;;;;;;;22.39;46.21;101616.19;4992965;28;20066;-70
2023/06/09 09:48:15;;;;;;;187.18;67.57;;;;;;;22.38;46.50;101609.16;4992922;28;20472;-70
2023/06/09 09:50:42;;;;;;;178.60;66.18;;;;;;;22.36;46.40;101610.16;4992105;28;20203;-70
2023/06/09 09:53:08;;;;;;;186.43;68.30;;;;;;;22.34;46.40;101607.59;4984825;28;20026;-70
2023/06/09 09:55:35;;;;;;;189.57;68.75;;;;;;;22.31;46.58;101607.72;4992274;28;20026;-70
2023/06/09 09:58:06;;;;;;;187.75;68.57;;;;;;;22.32;46.41;101612.13;4993111;28;20038;-70
2023/06/09 10:00:35;;;;;;;187.80;67.75;;;;;;;22.29;46.96;101609.59;4992889;28;20084;-71
2023/06/09 10:03:05;;;;;;;186.27;67.78;;;;;;;22.28;47.05;101618.53;4976377;28;20057;-69
2023/06/09 10:05:32;;;;;;;187.07;67.78;;;;;;;22.26;47.06;101613.28;4992216;28;20028;-70
2023/06/09 10:08:02;;;;;;;187.45;69.50;;;;;;;22.26;46.91;101610.63;4993042;28;20028;-71
2023/06/09 10:10:27;;;;;;;188.43;69.38;;;;;;;22.24;46.93;101608.97;4992872;28;20508;-70
2023/06/09 10:12:54;;;;;;;187.20;68.30;;;;;;;22.22;47.37;101608.19;4992808;28;20089;-70
2023/06/09 10:15:20;;;;;;;185.07;68.10;;;;;;;22.22;47.01;101608.19;4975058;28;20038;-71
2023/06/09 10:17:48;;;;;;;187.73;69.47;;;;;;;22.20;46.96;101602.09;4992805;28;20022;-70
2023/06/09 10:20:14;;;;;;;190.82;69.13;;;;;;;22.19;46.73;101603.03;4991104;28;20072;-70
2023/06/09 10:22:40;;;;;;;187.77;69.10;;;;;;;22.16;47.03;101597.88;4992702;28;20022;-71
2023/06/09 10:25:06;;;;;;;189.85;68.63;;;;;;;22.15;46.83;101596.16;4993325;28;20033;-71
2023/06/09 10:27:32;;;;;;;187.48;68.80;;;;;;;22.14;47.63;101599.72;4992622;28;20484;-71
2023/06/09 10:29:57;;;;;;;190.35;69.80;;;;;;;22.12;47.32;101591.84;4987896;28;20042;-70
2023/06/09 10:32:26;;;;;;;188.70;68.03;;;;;;;22.10;47.15;101591.91;4993011;28;20026;-70
2023/06/09 10:34:52;;;;;;;185.82;68.85;;;;;;;22.08;47.66;101591.13;4992222;28;20088;-70
2023/06/09 10:37:29;;;;;;;186.02;67.90;;;;;;;22.07;47.11;101594.75;4991982;28;20033;-71
2023/06/09 10:40:15;;;;;;;185.32;68.60;;;;;;;22.05;47.48;101593.94;4992526;28;20026;-71
2023/06/09 10:42:52;;;;;;;186.05;67.90;;;;;;;22.04;47.23;101594.88;4989633;28;20046;-70
2023/06/09 10:45:19;;;;;;;186.85;66.93;;;;;;;22.01;47.21;101583.53;4990193;28;20045;-70
2023/06/09 10:47:46;;;;;;;190.18;69.93;;;;;;;22.01;47.87;101588.88;4992104;28;20030;-71
2023/06/09 10:50:30;;;;;;;191.63;70.05;;;;;;;21.99;47.13;101588.94;4991402;28;20439;-71
2023/06/09 10:52:57;;;;;;;186.77;68.43;;;;;;;21.99;47.34;101585.41;4990664;28;20022;-70
2023/06/09 10:55:24;;;;;;;177.88;65.93;;;;;;;21.96;47.58;101578.44;4991587;28;20314;-70
2023/06/09 10:57:51;;;;;;;185.23;68.55;;;;;;;21.95;47.26;101584.69;4993311;28;20398;-70
2023/06/09 11:00:17;;;;;;;185.15;67.30;;;;;;;21.94;47.39;101577.66;4992021;28;20186;-71